MSR80 HECA-HESN
Flight info
| Callsign | MSR80 |
|---|---|
| Flight time | 1h 3m |
| Altitude | 37000 |
| Route | CVO A727 LXR W605 ASN |
| Aircraft | A20N/M-SDE2E3FGHIRWXY/LB1 |
Departure
| Time | 2026-05-07 15:47 |
|---|---|
| Airport | Cairo International Airport (HECA) |
Arrival
| Time | 2026-05-07 16:50 |
|---|---|
| Airport | Aswan International Airport (HESN) |
| Time | Latitude | Longitude | Altitude | Speed | Heading |
|---|---|---|---|---|---|
| 2026-05-07 15:34 | 30.10870 | 31.39655 | 374 ft | 0 kts | 256° |
| 2026-05-07 15:39 | 30.10876 | 31.39684 | 375 ft | 4 kts | 255° |
| 2026-05-07 15:39 | 30.10883 | 31.39713 | 375 ft | 4 kts | 252° |
| 2026-05-07 15:39 | 30.10892 | 31.39738 | 375 ft | 2 kts | 227° |
| 2026-05-07 15:39 | 30.10905 | 31.39746 | 375 ft | 2 kts | 166° |
| 2026-05-07 15:40 | 30.10916 | 31.39743 | 375 ft | 0 kts | 165° |
| 2026-05-07 15:41 | 30.10915 | 31.39743 | 374 ft | 0 kts | 165° |
| 2026-05-07 15:41 | 30.10895 | 31.39749 | 374 ft | 5 kts | 165° |
| 2026-05-07 15:42 | 30.10849 | 31.39763 | 374 ft | 9 kts | 165° |
| 2026-05-07 15:42 | 30.10781 | 31.39783 | 374 ft | 10 kts | 165° |
| 2026-05-07 15:42 | 30.10720 | 31.39801 | 374 ft | 9 kts | 165° |
| 2026-05-07 15:42 | 30.10666 | 31.39818 | 374 ft | 8 kts | 165° |
| 2026-05-07 15:43 | 30.10618 | 31.39832 | 374 ft | 7 kts | 165° |
| 2026-05-07 15:43 | 30.10578 | 31.39844 | 374 ft | 5 kts | 165° |
| 2026-05-07 15:43 | 30.10545 | 31.39854 | 374 ft | 4 kts | 165° |
| 2026-05-07 15:43 | 30.10503 | 31.39866 | 374 ft | 9 kts | 165° |
| 2026-05-07 15:44 | 30.10425 | 31.39866 | 374 ft | 12 kts | 206° |
| 2026-05-07 15:44 | 30.10366 | 31.39800 | 374 ft | 11 kts | 228° |
| 2026-05-07 15:44 | 30.10298 | 31.39713 | 374 ft | 21 kts | 228° |
| 2026-05-07 15:44 | 30.10219 | 31.39611 | 374 ft | 16 kts | 228° |
| 2026-05-07 15:45 | 30.10131 | 31.39593 | 374 ft | 13 kts | 149° |
| 2026-05-07 15:45 | 30.10061 | 31.39659 | 374 ft | 12 kts | 139° |
| 2026-05-07 15:45 | 30.10053 | 31.39668 | 374 ft | 0 kts | 139° |
| 2026-05-07 15:45 | 30.10049 | 31.39672 | 374 ft | 5 kts | 139° |
| 2026-05-07 15:46 | 30.10009 | 31.39885 | 374 ft | 13 kts | 59° |
| 2026-05-07 15:46 | 30.10020 | 31.39902 | 374 ft | 2 kts | 51° |
| 2026-05-07 15:46 | 30.10071 | 31.39969 | 374 ft | 41 kts | 49° |
| 2026-05-07 15:47 | 30.10457 | 31.40484 | 375 ft | 124 kts | 47° |
| 2026-05-07 15:47 | 30.11153 | 31.41390 | 546 ft | 169 kts | 47° |
| 2026-05-07 15:47 | 30.11718 | 31.42102 | 940 ft | 184 kts | 44° |
| 2026-05-07 15:47 | 30.12619 | 31.43216 | 1732 ft | 194 kts | 46° |
| 2026-05-07 15:48 | 30.13378 | 31.44514 | 2497 ft | 200 kts | 72° |
| 2026-05-07 15:48 | 30.13241 | 31.46126 | 3288 ft | 215 kts | 114° |
| 2026-05-07 15:48 | 30.12095 | 31.47313 | 4085 ft | 229 kts | 157° |
| 2026-05-07 15:48 | 30.10520 | 31.47682 | 4880 ft | 235 kts | 174° |
| 2026-05-07 15:49 | 30.08870 | 31.47744 | 5640 ft | 238 kts | 179° |
| 2026-05-07 15:49 | 30.07209 | 31.47755 | 6431 ft | 239 kts | 180° |
| 2026-05-07 15:49 | 30.05540 | 31.47799 | 7173 ft | 240 kts | 178° |
| 2026-05-07 15:49 | 30.03869 | 31.47890 | 7918 ft | 241 kts | 177° |
| 2026-05-07 15:50 | 30.02137 | 31.48027 | 8398 ft | 258 kts | 176° |
| 2026-05-07 15:50 | 30.00288 | 31.48206 | 8890 ft | 275 kts | 175° |
| 2026-05-07 15:50 | 29.98317 | 31.48420 | 9399 ft | 293 kts | 175° |
| 2026-05-07 15:50 | 29.96232 | 31.48661 | 9978 ft | 307 kts | 174° |
| 2026-05-07 15:51 | 29.94070 | 31.48919 | 10523 ft | 320 kts | 175° |
| 2026-05-07 15:51 | 29.91793 | 31.49194 | 10948 ft | 338 kts | 175° |
| 2026-05-07 15:51 | 29.89389 | 31.49486 | 11352 ft | 355 kts | 175° |
| 2026-05-07 15:51 | 29.86920 | 31.49788 | 11870 ft | 366 kts | 175° |
| 2026-05-07 15:52 | 29.84368 | 31.50098 | 12596 ft | 371 kts | 175° |
| 2026-05-07 15:52 | 29.81791 | 31.50409 | 13350 ft | 374 kts | 175° |
| 2026-05-07 15:52 | 29.79188 | 31.50723 | 14063 ft | 379 kts | 175° |
| 2026-05-07 15:52 | 29.76554 | 31.51041 | 14705 ft | 382 kts | 175° |
| 2026-05-07 15:53 | 29.73890 | 31.51365 | 15353 ft | 386 kts | 175° |
| 2026-05-07 15:53 | 29.71202 | 31.51692 | 15993 ft | 390 kts | 174° |
| 2026-05-07 15:53 | 29.68526 | 31.52310 | 16632 ft | 394 kts | 164° |
| 2026-05-07 15:53 | 29.65877 | 31.53184 | 17274 ft | 398 kts | 164° |
| 2026-05-07 15:54 | 29.63204 | 31.54064 | 17902 ft | 402 kts | 163° |
| 2026-05-07 15:54 | 29.60498 | 31.54953 | 18503 ft | 406 kts | 163° |
| 2026-05-07 15:54 | 29.57773 | 31.55846 | 19047 ft | 409 kts | 164° |
| 2026-05-07 15:54 | 29.55027 | 31.56742 | 19627 ft | 412 kts | 164° |
| 2026-05-07 15:55 | 29.52254 | 31.57647 | 20200 ft | 415 kts | 164° |
| 2026-05-07 15:55 | 29.49470 | 31.58559 | 20769 ft | 418 kts | 164° |
| 2026-05-07 15:55 | 29.46664 | 31.59478 | 21330 ft | 421 kts | 164° |
| 2026-05-07 15:55 | 29.43836 | 31.60401 | 21895 ft | 424 kts | 164° |
| 2026-05-07 15:56 | 29.40988 | 31.61330 | 22443 ft | 427 kts | 164° |
| 2026-05-07 15:56 | 29.38118 | 31.62265 | 22971 ft | 430 kts | 164° |
| 2026-05-07 15:56 | 29.35231 | 31.63205 | 23494 ft | 433 kts | 164° |
| 2026-05-07 15:56 | 29.32327 | 31.64150 | 23937 ft | 435 kts | 164° |
| 2026-05-07 15:57 | 29.29397 | 31.65103 | 24340 ft | 439 kts | 164° |
| 2026-05-07 15:57 | 29.26453 | 31.66061 | 24738 ft | 441 kts | 164° |
| 2026-05-07 15:57 | 29.23494 | 31.67024 | 25123 ft | 444 kts | 164° |
| 2026-05-07 15:57 | 29.20429 | 31.68017 | 25520 ft | 447 kts | 165° |
| 2026-05-07 15:58 | 29.17431 | 31.68987 | 25886 ft | 449 kts | 165° |
| 2026-05-07 15:58 | 29.14413 | 31.69965 | 26251 ft | 452 kts | 165° |
| 2026-05-07 15:58 | 29.11369 | 31.70954 | 26604 ft | 455 kts | 165° |
| 2026-05-07 15:58 | 29.08306 | 31.71947 | 26945 ft | 458 kts | 165° |
| 2026-05-07 15:59 | 29.05231 | 31.72943 | 27290 ft | 461 kts | 165° |
| 2026-05-07 15:59 | 29.02133 | 31.73948 | 27614 ft | 464 kts | 165° |
| 2026-05-07 15:59 | 28.99017 | 31.74957 | 27950 ft | 467 kts | 165° |
| 2026-05-07 15:59 | 28.95880 | 31.75969 | 28262 ft | 469 kts | 165° |
| 2026-05-07 16:00 | 28.92728 | 31.76975 | 28589 ft | 472 kts | 166° |
| 2026-05-07 16:00 | 28.89549 | 31.77983 | 28891 ft | 475 kts | 166° |
| 2026-05-07 16:00 | 28.86355 | 31.78993 | 29187 ft | 477 kts | 166° |
| 2026-05-07 16:00 | 28.83142 | 31.80008 | 29473 ft | 480 kts | 166° |
| 2026-05-07 16:01 | 28.79914 | 31.81027 | 29752 ft | 482 kts | 166° |
| 2026-05-07 16:01 | 28.76676 | 31.82049 | 30036 ft | 484 kts | 166° |
| 2026-05-07 16:01 | 28.73374 | 31.83095 | 30267 ft | 486 kts | 165° |
| 2026-05-07 16:01 | 28.70108 | 31.84134 | 30470 ft | 489 kts | 166° |
| 2026-05-07 16:02 | 28.66826 | 31.85179 | 30678 ft | 491 kts | 166° |
| 2026-05-07 16:02 | 28.63526 | 31.86228 | 30869 ft | 493 kts | 166° |
| 2026-05-07 16:02 | 28.60213 | 31.87279 | 31071 ft | 495 kts | 166° |
| 2026-05-07 16:02 | 28.57059 | 31.88273 | 31278 ft | 496 kts | 166° |
| 2026-05-07 16:03 | 28.53732 | 31.89319 | 31550 ft | 496 kts | 166° |
| 2026-05-07 16:03 | 28.50409 | 31.90365 | 31825 ft | 496 kts | 166° |
| 2026-05-07 16:03 | 28.47086 | 31.91413 | 32089 ft | 496 kts | 166° |
| 2026-05-07 16:03 | 28.43750 | 31.92470 | 32358 ft | 496 kts | 166° |
| 2026-05-07 16:04 | 28.40429 | 31.93521 | 32610 ft | 497 kts | 165° |
| 2026-05-07 16:04 | 28.37096 | 31.94576 | 32875 ft | 497 kts | 165° |
| 2026-05-07 16:04 | 28.33763 | 31.95627 | 33133 ft | 497 kts | 166° |
| 2026-05-07 16:04 | 28.30417 | 31.96680 | 33379 ft | 497 kts | 166° |
| 2026-05-07 16:05 | 28.27082 | 31.97725 | 33641 ft | 497 kts | 166° |
| 2026-05-07 16:05 | 28.23741 | 31.98770 | 33915 ft | 498 kts | 166° |
| 2026-05-07 16:05 | 28.20405 | 31.99812 | 34154 ft | 498 kts | 166° |
| 2026-05-07 16:05 | 28.17066 | 32.00855 | 34398 ft | 497 kts | 166° |
| 2026-05-07 16:06 | 28.13730 | 32.01902 | 34655 ft | 496 kts | 166° |
| 2026-05-07 16:06 | 28.10397 | 32.02951 | 34902 ft | 496 kts | 166° |
| 2026-05-07 16:06 | 28.07072 | 32.03996 | 35137 ft | 495 kts | 166° |
| 2026-05-07 16:06 | 28.03709 | 32.05051 | 35376 ft | 494 kts | 166° |
| 2026-05-07 16:07 | 28.00402 | 32.06093 | 35599 ft | 494 kts | 166° |
| 2026-05-07 16:07 | 27.97008 | 32.07175 | 35814 ft | 493 kts | 166° |
| 2026-05-07 16:07 | 27.93702 | 32.08232 | 36017 ft | 492 kts | 166° |
| 2026-05-07 16:07 | 27.90366 | 32.09304 | 36227 ft | 492 kts | 167° |
| 2026-05-07 16:08 | 27.87079 | 32.10360 | 36414 ft | 491 kts | 167° |
| 2026-05-07 16:08 | 27.83784 | 32.11415 | 36599 ft | 491 kts | 167° |
| 2026-05-07 16:08 | 27.80495 | 32.12468 | 36784 ft | 491 kts | 167° |
| 2026-05-07 16:08 | 27.77207 | 32.13518 | 36948 ft | 490 kts | 167° |
| 2026-05-07 16:09 | 27.73931 | 32.14563 | 36993 ft | 489 kts | 167° |
| 2026-05-07 16:09 | 27.68442 | 32.16313 | 36987 ft | 489 kts | 167° |
| 2026-05-07 16:10 | 27.61895 | 32.18393 | 36974 ft | 489 kts | 167° |
| 2026-05-07 16:10 | 27.55349 | 32.20474 | 36961 ft | 489 kts | 167° |
| 2026-05-07 16:11 | 27.48809 | 32.22554 | 36959 ft | 489 kts | 167° |
| 2026-05-07 16:11 | 27.42255 | 32.24631 | 36952 ft | 489 kts | 168° |
| 2026-05-07 16:12 | 27.35707 | 32.26710 | 36953 ft | 488 kts | 168° |
| 2026-05-07 16:12 | 27.29159 | 32.28779 | 36949 ft | 488 kts | 168° |
| 2026-05-07 16:13 | 27.22621 | 32.30844 | 36948 ft | 488 kts | 168° |
| 2026-05-07 16:13 | 27.16087 | 32.32905 | 36941 ft | 488 kts | 168° |
| 2026-05-07 16:14 | 27.09556 | 32.34964 | 36941 ft | 487 kts | 168° |
| 2026-05-07 16:14 | 27.03019 | 32.37022 | 36938 ft | 487 kts | 168° |
| 2026-05-07 16:15 | 26.96502 | 32.39069 | 36935 ft | 486 kts | 168° |
| 2026-05-07 16:15 | 26.89933 | 32.41132 | 36927 ft | 486 kts | 168° |
| 2026-05-07 16:16 | 26.83417 | 32.43172 | 36927 ft | 486 kts | 168° |
| 2026-05-07 16:16 | 26.76904 | 32.45212 | 36924 ft | 486 kts | 168° |
| 2026-05-07 16:17 | 26.70393 | 32.47256 | 36922 ft | 485 kts | 168° |
| 2026-05-07 16:17 | 26.63894 | 32.49286 | 36918 ft | 484 kts | 168° |
| 2026-05-07 16:18 | 26.57398 | 32.51315 | 36915 ft | 484 kts | 168° |
| 2026-05-07 16:18 | 26.50901 | 32.53343 | 36910 ft | 484 kts | 168° |
| 2026-05-07 16:19 | 26.44418 | 32.55364 | 36906 ft | 484 kts | 168° |
| 2026-05-07 16:19 | 26.37942 | 32.57376 | 36905 ft | 483 kts | 169° |
| 2026-05-07 16:20 | 26.31463 | 32.59394 | 36902 ft | 482 kts | 169° |
| 2026-05-07 16:20 | 26.24991 | 32.61398 | 36905 ft | 482 kts | 169° |
| 2026-05-07 16:21 | 26.18536 | 32.63402 | 36911 ft | 481 kts | 169° |
| 2026-05-07 16:21 | 26.12090 | 32.65408 | 36903 ft | 480 kts | 169° |
| 2026-05-07 16:22 | 26.05647 | 32.67395 | 36914 ft | 480 kts | 169° |
| 2026-05-07 16:22 | 25.99215 | 32.69375 | 36910 ft | 479 kts | 169° |
| 2026-05-07 16:23 | 25.92832 | 32.71339 | 36916 ft | 478 kts | 169° |
| 2026-05-07 16:23 | 25.86361 | 32.73338 | 36915 ft | 478 kts | 169° |
| 2026-05-07 16:24 | 25.79955 | 32.75317 | 36920 ft | 478 kts | 169° |
| 2026-05-07 16:24 | 25.73501 | 32.76863 | 36911 ft | 468 kts | 182° |
| 2026-05-07 16:25 | 25.67034 | 32.77061 | 36912 ft | 465 kts | 185° |
| 2026-05-07 16:25 | 25.64302 | 32.77128 | 36781 ft | 467 kts | 185° |
| 2026-05-07 16:25 | 25.61057 | 32.77212 | 36519 ft | 465 kts | 184° |
| 2026-05-07 16:25 | 25.57817 | 32.77302 | 36263 ft | 465 kts | 184° |
| 2026-05-07 16:26 | 25.54581 | 32.77394 | 35970 ft | 465 kts | 184° |
| 2026-05-07 16:26 | 25.51336 | 32.77484 | 35131 ft | 468 kts | 184° |
| 2026-05-07 16:26 | 25.48072 | 32.77571 | 34220 ft | 471 kts | 184° |
| 2026-05-07 16:26 | 25.45845 | 32.77629 | 33572 ft | 473 kts | 184° |
| 2026-05-07 16:27 | 25.41428 | 32.77746 | 32221 ft | 476 kts | 184° |
| 2026-05-07 16:27 | 25.38175 | 32.77835 | 31577 ft | 470 kts | 184° |
| 2026-05-07 16:27 | 25.34918 | 32.77927 | 30918 ft | 466 kts | 184° |
| 2026-05-07 16:27 | 25.31654 | 32.78020 | 30250 ft | 462 kts | 184° |
| 2026-05-07 16:28 | 25.28452 | 32.78109 | 29535 ft | 458 kts | 184° |
| 2026-05-07 16:28 | 25.25283 | 32.78193 | 28900 ft | 452 kts | 183° |
| 2026-05-07 16:28 | 25.23743 | 32.78233 | 28583 ft | 449 kts | 183° |
| 2026-05-07 16:29 | 25.20381 | 32.78321 | 27915 ft | 444 kts | 183° |
| 2026-05-07 16:29 | 25.17311 | 32.78402 | 27290 ft | 439 kts | 183° |
| 2026-05-07 16:29 | 25.14269 | 32.78480 | 26705 ft | 434 kts | 183° |
| 2026-05-07 16:29 | 25.11269 | 32.78559 | 26135 ft | 430 kts | 183° |
| 2026-05-07 16:30 | 25.08293 | 32.78639 | 25577 ft | 425 kts | 183° |
| 2026-05-07 16:30 | 25.05344 | 32.78721 | 25026 ft | 421 kts | 183° |
| 2026-05-07 16:30 | 25.02427 | 32.78806 | 24494 ft | 417 kts | 183° |
| 2026-05-07 16:30 | 24.99540 | 32.78890 | 23969 ft | 414 kts | 182° |
| 2026-05-07 16:31 | 24.96635 | 32.78975 | 23456 ft | 410 kts | 182° |
| 2026-05-07 16:31 | 24.93799 | 32.79057 | 22913 ft | 406 kts | 182° |
| 2026-05-07 16:31 | 24.90990 | 32.79135 | 22440 ft | 400 kts | 182° |
| 2026-05-07 16:31 | 24.88224 | 32.79208 | 21966 ft | 395 kts | 182° |
| 2026-05-07 16:32 | 24.85490 | 32.79279 | 21495 ft | 391 kts | 182° |
| 2026-05-07 16:32 | 24.82782 | 32.79351 | 21027 ft | 387 kts | 182° |
| 2026-05-07 16:32 | 24.80100 | 32.79421 | 20544 ft | 383 kts | 182° |
| 2026-05-07 16:32 | 24.77437 | 32.79492 | 20061 ft | 380 kts | 182° |
| 2026-05-07 16:33 | 24.74801 | 32.79565 | 19571 ft | 378 kts | 182° |
| 2026-05-07 16:33 | 24.72176 | 32.79639 | 19081 ft | 376 kts | 182° |
| 2026-05-07 16:33 | 24.69568 | 32.79713 | 18578 ft | 375 kts | 182° |
| 2026-05-07 16:33 | 24.66964 | 32.79786 | 18059 ft | 374 kts | 182° |
| 2026-05-07 16:34 | 24.64374 | 32.79859 | 17534 ft | 371 kts | 182° |
| 2026-05-07 16:34 | 24.61800 | 32.79930 | 17037 ft | 368 kts | 182° |
| 2026-05-07 16:34 | 24.59249 | 32.80000 | 16554 ft | 366 kts | 182° |
| 2026-05-07 16:34 | 24.56715 | 32.80069 | 16069 ft | 363 kts | 182° |
| 2026-05-07 16:35 | 24.55007 | 32.80115 | 15743 ft | 362 kts | 182° |
| 2026-05-07 16:35 | 24.52498 | 32.80182 | 15265 ft | 360 kts | 182° |
| 2026-05-07 16:35 | 24.49999 | 32.80247 | 14788 ft | 358 kts | 182° |
| 2026-05-07 16:35 | 24.47515 | 32.80313 | 14315 ft | 357 kts | 181° |
| 2026-05-07 16:36 | 24.45034 | 32.80380 | 13845 ft | 355 kts | 181° |
| 2026-05-07 16:36 | 24.42570 | 32.80449 | 13321 ft | 354 kts | 181° |
| 2026-05-07 16:36 | 24.40118 | 32.80519 | 12821 ft | 351 kts | 181° |
| 2026-05-07 16:36 | 24.37689 | 32.80589 | 12329 ft | 347 kts | 181° |
| 2026-05-07 16:37 | 24.35281 | 32.80656 | 11848 ft | 344 kts | 181° |
| 2026-05-07 16:37 | 24.33414 | 32.80707 | 11462 ft | 342 kts | 181° |
| 2026-05-07 16:37 | 24.30979 | 32.80774 | 10950 ft | 340 kts | 181° |
| 2026-05-07 16:37 | 24.28623 | 32.80838 | 10459 ft | 338 kts | 181° |
| 2026-05-07 16:38 | 24.26293 | 32.80902 | 10155 ft | 330 kts | 181° |
| 2026-05-07 16:38 | 24.24045 | 32.80966 | 10036 ft | 315 kts | 181° |
| 2026-05-07 16:38 | 24.21898 | 32.81025 | 9915 ft | 302 kts | 181° |
| 2026-05-07 16:38 | 24.19842 | 32.81080 | 9567 ft | 298 kts | 181° |
| 2026-05-07 16:39 | 24.17763 | 32.81133 | 9123 ft | 297 kts | 181° |
| 2026-05-07 16:39 | 24.15700 | 32.81188 | 8641 ft | 297 kts | 181° |
| 2026-05-07 16:39 | 24.13640 | 32.81244 | 8268 ft | 293 kts | 181° |
| 2026-05-07 16:39 | 24.11604 | 32.81299 | 7811 ft | 293 kts | 181° |
| 2026-05-07 16:40 | 24.09563 | 32.81352 | 7384 ft | 292 kts | 181° |
| 2026-05-07 16:40 | 24.07547 | 32.81405 | 7132 ft | 284 kts | 181° |
| 2026-05-07 16:40 | 24.05615 | 32.81458 | 7010 ft | 271 kts | 181° |
| 2026-05-07 16:40 | 24.03776 | 32.81513 | 6894 ft | 258 kts | 181° |
| 2026-05-07 16:41 | 24.01991 | 32.81566 | 6547 ft | 257 kts | 181° |
| 2026-05-07 16:41 | 24.00197 | 32.81614 | 6128 ft | 258 kts | 181° |
| 2026-05-07 16:41 | 23.98401 | 32.81660 | 5723 ft | 258 kts | 181° |
| 2026-05-07 16:41 | 23.96605 | 32.81789 | 5338 ft | 259 kts | 172° |
| 2026-05-07 16:42 | 23.94836 | 32.82124 | 4940 ft | 258 kts | 172° |
| 2026-05-07 16:42 | 23.93066 | 32.82456 | 4519 ft | 259 kts | 171° |
| 2026-05-07 16:42 | 23.91284 | 32.82788 | 4099 ft | 259 kts | 171° |
| 2026-05-07 16:42 | 23.89482 | 32.83123 | 3601 ft | 264 kts | 171° |
| 2026-05-07 16:43 | 23.87686 | 32.83457 | 3258 ft | 260 kts | 170° |
| 2026-05-07 16:43 | 23.85905 | 32.83787 | 2874 ft | 259 kts | 169° |
| 2026-05-07 16:43 | 23.84130 | 32.84116 | 2485 ft | 258 kts | 169° |
| 2026-05-07 16:43 | 23.82388 | 32.84439 | 2283 ft | 249 kts | 170° |
| 2026-05-07 16:44 | 23.80721 | 32.84749 | 2200 ft | 235 kts | 170° |
| 2026-05-07 16:44 | 23.79234 | 32.85178 | 2249 ft | 213 kts | 148° |
| 2026-05-07 16:44 | 23.78304 | 32.86273 | 2228 ft | 187 kts | 107° |
| 2026-05-07 16:44 | 23.78177 | 32.87581 | 2203 ft | 160 kts | 72° |
| 2026-05-07 16:45 | 23.78615 | 32.88587 | 2200 ft | 140 kts | 44° |
| 2026-05-07 16:45 | 23.79372 | 32.89214 | 2207 ft | 137 kts | 20° |
| 2026-05-07 16:45 | 23.80305 | 32.89407 | 2220 ft | 138 kts | 355° |
| 2026-05-07 16:45 | 23.81227 | 32.89124 | 2204 ft | 139 kts | 331° |
| 2026-05-07 16:46 | 23.81967 | 32.88443 | 2201 ft | 141 kts | 316° |
| 2026-05-07 16:46 | 23.82467 | 32.87515 | 2201 ft | 143 kts | 295° |
| 2026-05-07 16:46 | 23.82781 | 32.86482 | 2204 ft | 145 kts | 291° |
| 2026-05-07 16:46 | 23.83116 | 32.85444 | 2214 ft | 145 kts | 297° |
| 2026-05-07 16:47 | 23.83572 | 32.84481 | 2195 ft | 141 kts | 313° |
| 2026-05-07 16:47 | 23.84399 | 32.84095 | 2147 ft | 136 kts | 7° |
| 2026-05-07 16:47 | 23.85352 | 32.84029 | 2257 ft | 140 kts | 347° |
| 2026-05-07 16:47 | 23.86288 | 32.83814 | 2182 ft | 138 kts | 350° |
| 2026-05-07 16:48 | 23.87225 | 32.83628 | 2090 ft | 137 kts | 350° |
| 2026-05-07 16:48 | 23.88164 | 32.83453 | 1942 ft | 137 kts | 351° |
| 2026-05-07 16:48 | 23.89099 | 32.83284 | 1782 ft | 136 kts | 351° |
| 2026-05-07 16:48 | 23.90032 | 32.83122 | 1634 ft | 136 kts | 351° |
| 2026-05-07 16:49 | 23.90965 | 32.82963 | 1467 ft | 135 kts | 353° |
| 2026-05-07 16:49 | 23.91907 | 32.82811 | 1241 ft | 139 kts | 353° |
| 2026-05-07 16:49 | 23.92844 | 32.82613 | 1068 ft | 138 kts | 349° |
| 2026-05-07 16:49 | 23.93792 | 32.82439 | 951 ft | 139 kts | 351° |
| 2026-05-07 16:50 | 23.94737 | 32.82283 | 743 ft | 137 kts | 351° |
| 2026-05-07 16:50 | 23.95680 | 32.82122 | 675 ft | 137 kts | 353° |
| 2026-05-07 16:50 | 23.96570 | 32.81985 | 652 ft | 99 kts | 348° |
| 2026-05-07 16:50 | 23.96961 | 32.81905 | 651 ft | 32 kts | 352° |
| 2026-05-07 16:51 | 23.97152 | 32.81879 | 652 ft | 11 kts | 23° |
| 2026-05-07 16:51 | 23.97183 | 32.81940 | 652 ft | 6 kts | 75° |
| 2026-05-07 16:51 | 23.97191 | 32.81973 | 657 ft | 4 kts | 79° |
| 2026-05-07 16:51 | 23.97198 | 32.82030 | 654 ft | 11 kts | 83° |
| 2026-05-07 16:52 | 23.97206 | 32.82106 | 657 ft | 9 kts | 84° |
| 2026-05-07 16:52 | 23.97186 | 32.82158 | 659 ft | 7 kts | 146° |
| 2026-05-07 16:52 | 23.97110 | 32.82178 | 655 ft | 14 kts | 172° |
| 2026-05-07 16:52 | 23.97039 | 32.82189 | 658 ft | 8 kts | 171° |
| 2026-05-07 16:53 | 23.97025 | 32.82206 | 656 ft | 1 kts | 96° |
| 2026-05-07 16:53 | 23.97019 | 32.82215 | 657 ft | 7 kts | 132° |
| 2026-05-07 16:53 | 23.96970 | 32.82211 | 655 ft | 15 kts | 196° |
| 2026-05-07 16:53 | 23.96872 | 32.82221 | 655 ft | 14 kts | 171° |
| 2026-05-07 16:54 | 23.96791 | 32.82257 | 656 ft | 12 kts | 158° |
| 2026-05-07 16:54 | 23.96715 | 32.82271 | 657 ft | 11 kts | 176° |
| 2026-05-07 16:54 | 23.96644 | 32.82276 | 659 ft | 10 kts | 174° |
| 2026-05-07 16:54 | 23.96579 | 32.82286 | 655 ft | 10 kts | 171° |
| 2026-05-07 16:55 | 23.96487 | 32.82284 | 660 ft | 16 kts | 173° |
| 2026-05-07 16:55 | 23.96386 | 32.82342 | 657 ft | 12 kts | 144° |
| 2026-05-07 16:55 | 23.96307 | 32.82362 | 655 ft | 11 kts | 172° |
| 2026-05-07 16:55 | 23.96236 | 32.82377 | 660 ft | 6 kts | 146° |
| 2026-05-07 16:56 | 23.96218 | 32.82413 | 657 ft | 5 kts | 121° |
| 2026-05-07 16:56 | 23.96201 | 32.82445 | 655 ft | 5 kts | 121° |
| 2026-05-07 16:56 | 23.96199 | 32.82448 | 658 ft | 0 kts | 121° |